• Join FlightAware (Why Join?)
  • Login
  • US Flag 
02:33PM EDT


 

Airport Tracker/Info


-or-


 

Live Flight TrackerFlight Track Log ✈ SWA407 ✈ 29-Apr-2013 ✈ KSAN - KLAS

Flight Track Log - Related Links

Times and Time Zones

All times are in EDT time to prevent confusion due to time zone crossing. See the SWA407 flight status page for this flight to view local times or setup timezone preferences in your user account.

Time Position Orientation Groundspeed Altitude Reporting Facility
EDT Latitude Longitude Course Direction KTS MPH feet Rate Location/Type
01:15AM 32.7772 -117.2706 306° West 207 238 4,700  Level Los Angeles Center
01:16AM 32.8233 -117.3394 309° West 258 297 8,900 4,380 Climbing Los Angeles Center
01:17AM 32.8900 -117.4294 311° West 297 342 13,700 4,440 Climbing Los Angeles Center
01:18AM 32.9522 -117.5175 310° West 335 386 18,100 4,080 Climbing Los Angeles Center
01:19AM 33.0192 -117.6094 311° West 359 413 22,000 3,780 Climbing Los Angeles Center
01:20AM 33.0330 -117.6128 310° West  Level FlightAware Approximate
01:21AM 33.0894 -117.7072 311° West 383 441 25,900  Level Los Angeles Center
01:22AM 33.1611 -117.8058 311° West 394 453 28,700 1,500 Climbing Los Angeles Center
01:23AM 33.2433 -117.9125 313° West 431 496 29,000 120 Climbing Los Angeles Center
01:24AM 33.3311 -118.0286 312° West 465 535 29,000  Level Los Angeles Center
01:25AM 33.4203 -118.1422 313° West 468 539 29,000  Level Los Angeles Center
01:26AM 33.5422 -118.1439 359° North 469 540 29,000  Level Los Angeles Center
01:27AM 33.6528 -118.0692 29° Northeast 464 534 29,000  Level Los Angeles Center
01:28AM 33.7872 -117.9806 29° Northeast 467 537 29,000  Level Los Angeles Center
01:29AM 33.9219 -117.8925 28° Northeast 465 535 29,000  Level Los Angeles Center
01:30AM 34.0556 -117.8014 29° Northeast 463 533 29,000  Level Los Angeles Center
01:31AM 34.1461 -117.6964 44° Northeast 457 526 29,000  Level Los Angeles Center
01:32AM 34.2297 -117.5825 48° Northeast 456 525 29,000  Level Los Angeles Center
01:33AM 34.3114 -117.4714 48° Northeast 446 513 29,000  Level Los Angeles Center
01:34AM 34.4006 -117.3494 48° Northeast 409 471 29,000  Level Los Angeles Center
01:35AM 34.4633 -117.2647 48° Northeast 412 474 29,000  Level Los Angeles Center
01:36AM 34.5528 -117.1414 49° Northeast 408 470 29,000  Level Los Angeles Center
01:37AM 34.6450 -117.0653 34° Northeast 415 478 29,000  Level Los Angeles Center
01:38AM 34.7497 -117.0125 22° Northeast 412 474 29,000  Level Los Angeles Center
01:39AM 34.8167 -116.9022 53° Northeast 410 472 29,000  Level Los Angeles Center
01:40AM 34.8808 -116.7908 55° Northeast 407 468 29,000  Level Los Angeles Center
01:41AM 34.9453 -116.6781 55° Northeast 408 470 29,000 -900 Level Los Angeles Center
01:42AM 35.0081 -116.5689 55° Northeast 400 460 27,200 -1,500 Descending Los Angeles Center
01:43AM 35.0658 -116.4656 56° Northeast 380 437 26,000 -1,620 Descending Los Angeles Center
01:44AM 35.1244 -116.3700 53° Northeast 360 414 24,000 -1,020 Descending Los Angeles Center
01:45AM 35.1947 -116.2839 45° Northeast 358 412 24,000  Level Los Angeles Center
01:46AM 35.2772 -116.1794 46° Northeast 356 410 24,000 -720 Level Los Angeles Center
01:47AM 35.3458 -116.0939 45° Northeast 353 406 22,600 -1,680 Descending Los Angeles Center
01:48AM 35.4164 -116.0056 46° Northeast 357 411 20,600 -1,920 Descending Los Angeles Center
01:49AM 35.4569 -115.9533 46° Northeast 353 406 19,400 -2,040 Descending Los Angeles Center
01:49AM 35.4833 -115.9247 41° Northeast 347 399 18,700 -2,340 Descending Los Angeles Center
01:50AM 35.5183 -115.8758 49° Northeast 343 395 17,300 -2,100 Descending Los Angeles Center
01:50AM 35.5481 -115.8383 46° Northeast 335 386 16,600 -1,860 Descending Los Angeles Center
01:51AM 35.5950 -115.7803 45° Northeast 325 374 15,100 -1,800 Descending Los Angeles Center
01:51AM 35.6100 -115.7603 47° Northeast 325 374 14,800 -1,740 Descending Los Angeles Center
01:52AM 35.6664 -115.6911 45° Northeast 317 365 13,200 -1,500 Descending Los Angeles Center
01:53AM 35.7025 -115.6583 36° Northeast 310 357 12,600 -960 Descending Los Angeles Center
01:53AM 35.7478 -115.6189 35° Northeast 309 356 12,100 -1,020 Descending Los Angeles Center
01:54AM 35.7933 -115.5789 35° Northeast 309 356 11,400 -1,020 Descending Los Angeles Center
01:54AM 35.8192 -115.5578 34° Northeast 314 361 11,100 -300 Descending Los Angeles Center
01:55AM 35.8789 -115.4989 39° Northeast 306 352 11,000 -360 Descending Los Angeles Center
01:56AM 35.9089 -115.4328 61° Northeast 304 350 10,600 -600 Descending Los Angeles Center
01:57AM 35.9194 -115.4092 61° Northeast 302 348 10,400 -1,020 Descending Los Angeles Center
01:57AM 35.9547 -115.3356 59° Northeast 296 341 9,500 -1,020 Descending Los Angeles Center
01:58AM 35.9606 -115.3233 59° Northeast 297 342 9,400 -540 Descending Los Angeles Center
01:58AM 35.9947 -115.2508 60° Northeast 275 316 9,000 -420 Descending Los Angeles Center
01:59AM 36.0011 -115.2411 51° Northeast 291 335 9,000 -600 Level Los Angeles Center
01:59AM 36.0153 -115.1669 77° East 264 304 8,400 -900 Descending Los Angeles Center
02:00AM 36.0147 -115.1414 92° East 266 306 8,100 -420 Descending Los Angeles Center
02:00AM 36.0092 -115.0786 96° East 249 287 8,000 -600 Descending Los Angeles Center
02:01AM 36.0050 -115.0108 94° East 219 252 7,200 -960 Descending Los Angeles Center
02:02AM 36.0056 -114.9817 89° East 235 270 6,800 -1,140 Descending Los Angeles Center
02:02AM 36.0017 -114.9456 98° East 214 246 6,200 -1,140 Descending Los Angeles Center
02:03AM 36.0203 -114.9203 48° Northeast 226 260 5,700 -600 Descending Los Angeles Center
02:03AM 36.0614 -114.9228 357° North 203 234 5,500  Descending Los Angeles Center
02:04AM 36.0753 -114.9228 360° North 209 241 5,700 -720 Climbing Los Angeles Center
02:06AM 36.0733 -115.0467 269° West 113 130 3,400 -780 Descending Los Angeles Center
02:07AM 36.0742 -115.0597 275° West 133 153 3,200 -660 Descending Los Angeles Center
02:08AM 36.0736 -115.1039 269° West 118 136 2,400 -840 Descending Los Angeles Center
02:10AM 36.0667 -115.1500 270° West  Level FlightAware Approximate